WMKP Airport Information

Runway Information
Runway 04 Length 10997 ft width 150 ft
Elevation 10 ft Threshold 0 ft Heading 42
Runway 22 Length 10997 ft Width 150 ft
Elevation 11 ft Threshold 0 ft Heading 222
Airport Frequencies
Type ATIS Name ATIS Frequency 126.4 MHZ
Type GND Name PENANG GR Frequency 121.6 MHZ
Type TWR Name PENANG TOW Frequency 121.1 MHZ
Airport Navaids
Type NDB Name Penang Frequency 406 KHZ
Type VOR-DME Name Penang Frequency 116200 KHZ
Airport Weather Information & NOTAM
ADDS - METARS form results

(2111 UTC 13 June 2021)
Data provider http://aviationweather.gov/metar/data/
 
METAR text: WMKP 132100Z VRB01KT 8000 FEW025 26/24 Q1009 NOSIG
Conditions at: WMKP (PENANG/BAYAN LEP, MY) observed 2100 UTC 13 June 2021
Temperature: 26.0°C (79°F)
Dewpoint: 24.0°C (75°F) [RH = 89%]
Pressure (altimeter): 29.79 inches Hg (1009.0 mb)
Winds: variable direction winds at 1 MPH (1 knots; 0.5 m/s)
Visibility: 5 miles ( 8 km)
Ceiling: at least 12,000 feet AGL
Clouds: few clouds at 2500 feet AGL
Weather: no significant weather observed at this time

METAR text: WMKP 132030Z 00000KT 8000 FEW025 27/25 Q1009 NOSIG
Conditions at: WMKP (PENANG/BAYAN LEP, MY) observed 2030 UTC 13 June 2021
Temperature: 27.0°C (81°F)
Dewpoint: 25.0°C (77°F) [RH = 89%]
Pressure (altimeter): 29.79 inches Hg (1009.0 mb)
Winds: calm
Visibility: 5 miles ( 8 km)
Ceiling: at least 12,000 feet AGL
Clouds: few clouds at 2500 feet AGL
Weather: no significant weather observed at this time

Forecast for: WMKP (PENANG/BAYAN LEP, MY)
Text: TAF WMKP 131700Z 1318/1418 VRB03KT 8000 FEW025
Forecast period: 1800 UTC 13 June 2021 to 0400 UTC 14 June 2021
Forecast type: FROM: standard forecast or significant change
Winds: variable direction winds at 3 MPH (3 knots; 1.5 m/s)
Visibility: 5 miles (8 km)
Ceiling: at least 12,000 feet AGL
Clouds: few clouds at 2500 feet AGL
Weather: no significant weather forecast for this period
Text: TEMPO 1322/1402 5000 TSRA FEW010 FEW017CB
Forecast period: 2200 UTC 13 June 2021 to 0200 UTC 14 June 2021
Forecast type: TEMPORARY: The following changes expected for less than half the time period
Visibility: 3 miles (5 km)
Ceiling: at least 12,000 feet AGL
Clouds: few clouds at 1000 feet AGL
few clouds at 1700 feet AGL
Weather: TSRA  (rain associated with thunderstorm(s))
Text: BECMG 1404/1406 21008KT 9000 FEW020
Forecast period: 0400 to 1800 UTC 14 June 2021
Forecast type: BECOMING: Conditions expected to become as follows by 0600 UTC 14 June 2021
Winds: from the SSW (210 degrees) at 9 MPH (8 knots; 4.1 m/s)
Visibility: 6 miles (9 km)
Ceiling: at least 12,000 feet AGL
Clouds: few clouds at 2000 feet AGL
Weather: no significant weather forecast for this period